Time;durP1;ratioP1;P1;durP2;ratioP2;P2;SDS_P1;SDS_P2;PMS_P1;PMS_P2;Temp;Humidity;BMP_temperature;BMP_pressure;BME280_temperature;BME280_humidity;BME280_pressure;Samples;Min_cycle;Max_cycle;Signal;HPM_P1;HPM_P2
2021/04/12 00:02:29;;;;;;;3.53;3.10;;;3.70;99.90;;;;;;4993286;28;20460;-87
2021/04/12 00:05:01;;;;;;;3.70;3.40;;;3.60;99.90;;;;;;4994446;28;20449;-91
2021/04/12 00:07:34;;;;;;;3.00;2.70;;;3.80;99.90;;;;;;4988778;28;20454;-87
2021/04/12 00:10:08;;;;;;;4.50;3.67;;;3.40;99.90;;;;;;4994522;28;20445;-89
2021/04/12 00:12:39;;;;;;;3.20;2.80;;;3.60;99.90;;;;;;4994445;28;20837;-89
2021/04/12 00:15:16;;;;;;;4.67;3.67;;;3.60;99.90;;;;;;4994376;28;20457;-87
2021/04/12 00:17:47;;;;;;;3.40;3.10;;;3.60;99.90;;;;;;4993251;28;20523;-88
2021/04/12 00:20:22;;;;;;;5.93;4.60;;;3.50;99.90;;;;;;4994141;28;20449;-87
2021/04/12 00:22:51;;;;;;;7.90;4.17;;;3.60;99.90;;;;;;4994195;28;20452;-86
2021/04/12 00:25:23;;;;;;;4.40;3.97;;;3.60;99.90;;;;;;4994183;28;20813;-88
2021/04/12 00:27:53;;;;;;;5.00;3.50;;;3.20;99.90;;;;;;4993919;28;20485;-86
2021/04/12 00:30:24;;;;;;;5.20;4.70;;;3.40;99.90;;;;;;4993808;28;20833;-86
2021/04/12 00:32:56;;;;;;;4.97;4.10;;;3.30;99.90;;;;;;4992829;28;20819;-88
2021/04/12 00:35:29;;;;;;;5.20;4.27;;;3.50;99.90;;;;;;4990934;28;20457;-85
2021/04/12 00:38:01;;;;;;;4.73;4.10;;;3.30;99.90;;;;;;4993835;28;20590;-86
2021/04/12 00:40:37;;;;;;;3.73;3.30;;;3.20;99.90;;;;;;4993917;28;20453;-85
2021/04/12 00:43:19;;;;;;;4.87;3.40;;;3.40;99.90;;;;;;4993872;28;20971;-87
2021/04/12 00:46:19;;;;;;;4.50;3.90;;;3.20;99.90;;;;;;4991816;28;20831;-85
2021/04/12 00:49:00;;;;;;;4.40;3.50;;;3.20;99.90;;;;;;4992731;28;20453;-88
2021/04/12 00:51:40;;;;;;;4.77;4.33;;;3.20;99.90;;;;;;4993735;28;20466;-87
2021/04/12 00:54:23;;;;;;;4.97;4.10;;;3.20;99.90;;;;;;4993740;28;20503;-86
2021/04/12 00:56:57;;;;;;;4.50;4.10;;;3.10;99.90;;;;;;4993461;28;20488;-85
2021/04/12 00:59:39;;;;;;;5.47;4.97;;;3.30;99.90;;;;;;4991238;28;20453;-83
2021/04/12 01:02:18;;;;;;;4.47;4.07;;;3.60;99.90;;;;;;4989896;28;20948;-84
2021/04/12 01:04:59;;;;;;;5.93;4.80;;;3.10;99.90;;;;;;4993522;28;20507;-86
2021/04/12 01:07:58;;;;;;;4.60;3.77;;;3.20;99.90;;;;;;4993353;28;20464;-87
2021/04/12 01:10:43;;;;;;;5.83;4.70;;;3.20;99.90;;;;;;4993452;28;20445;-84
2021/04/12 01:13:43;;;;;;;5.20;4.67;;;3.20;99.90;;;;;;4993295;28;20457;-84
2021/04/12 01:16:33;;;;;;;7.93;6.40;;;2.70;99.90;;;;;;4993232;28;20457;-85
2021/04/12 01:19:25;;;;;;;5.23;4.73;;;2.90;99.90;;;;;;4968369;28;20453;-84
2021/04/12 01:22:39;;;;;;;5.30;4.67;;;3.00;99.90;;;;;;4993261;28;20449;-86
2021/04/12 01:25:53;;;;;;;6.17;5.10;;;2.70;99.90;;;;;;4993358;28;20453;-86
2021/04/12 01:29:00;;;;;;;5.30;4.80;;;2.80;99.90;;;;;;4992936;28;20476;-85
2021/04/12 01:32:00;;;;;;;6.10;5.00;;;3.00;99.90;;;;;;4993289;28;20452;-85
2021/04/12 01:34:58;;;;;;;6.70;5.50;;;2.70;99.90;;;;;;4992163;28;20503;-86
2021/04/12 01:37:43;;;;;;;6.57;5.47;;;2.80;99.90;;;;;;4990096;28;20499;-84
2021/04/12 01:40:18;;;;;;;6.40;5.10;;;2.50;99.90;;;;;;4993287;28;20480;-84
2021/04/12 01:42:53;;;;;;;6.33;5.10;;;2.80;99.90;;;;;;4993097;28;20511;-85
2021/04/12 01:45:36;;;;;;;6.83;5.17;;;2.80;99.90;;;;;;4993098;28;20456;-86
2021/04/12 01:48:37;;;;;;;5.90;5.07;;;2.70;99.90;;;;;;4991976;28;20822;-85
2021/04/12 01:51:31;;;;;;;8.17;5.53;;;2.30;99.90;;;;;;4953945;28;20829;-86
2021/04/12 01:54:33;;;;;;;7.23;5.33;;;2.50;99.90;;;;;;4992969;28;20453;-87
2021/04/12 01:57:21;;;;;;;7.03;5.50;;;2.90;99.90;;;;;;4992751;28;20587;-85
2021/04/12 01:59:56;;;;;;;5.33;4.67;;;2.80;99.90;;;;;;4992946;28;20457;-86
2021/04/12 02:02:42;;;;;;;6.07;5.00;;;2.50;99.90;;;;;;4991738;28;21366;-85
2021/04/12 02:05:25;;;;;;;5.20;4.10;;;2.60;99.90;;;;;;4992925;28;20449;-86
2021/04/12 02:08:10;;;;;;;5.70;4.87;;;2.60;99.90;;;;;;4992758;28;20449;-89
2021/04/12 02:10:57;;;;;;;6.20;4.63;;;2.40;99.90;;;;;;4993083;28;20449;-84
2021/04/12 02:13:42;;;;;;;6.23;4.60;;;3.10;99.90;;;;;;4993040;28;20506;-87
2021/04/12 02:16:22;;;;;;;5.20;4.57;;;2.30;99.90;;;;;;4992572;28;20945;-85
2021/04/12 02:19:24;;;;;;;6.00;4.33;;;2.20;99.90;;;;;;4988792;28;20908;-83
2021/04/12 02:22:10;;;;;;;6.30;4.67;;;2.40;99.90;;;;;;4964273;28;20933;-85
2021/04/12 02:24:44;;;;;;;5.33;4.20;;;2.20;99.90;;;;;;4992724;28;20523;-85
2021/04/12 02:27:17;;;;;;;10.20;5.07;;;2.50;99.90;;;;;;4992808;28;20996;-83
2021/04/12 02:29:55;;;;;;;4.50;3.90;;;2.60;99.90;;;;;;4992859;28;20476;-88
2021/04/12 02:32:50;;;;;;;10.60;5.00;;;2.10;99.90;;;;;;4991101;28;20456;-86
2021/04/12 02:35:27;;;;;;;5.10;4.40;;;2.60;99.90;;;;;;4996284;28;20451;-85
2021/04/12 02:38:11;;;;;;;5.90;4.63;;;2.20;99.90;;;;;;4996148;28;20501;-87
2021/04/12 02:41:02;;;;;;;5.97;4.63;;;2.40;99.90;;;;;;4993464;28;20456;-87
2021/04/12 02:43:49;;;;;;;6.17;5.00;;;2.30;99.90;;;;;;4996324;28;20835;-83
2021/04/12 02:46:23;;;;;;;4.77;4.17;;;2.20;99.90;;;;;;4996265;28;20441;-87
2021/04/12 02:48:59;;;;;;;7.77;5.57;;;2.00;99.90;;;;;;4995079;28;20453;-88
2021/04/12 02:51:35;;;;;;;7.73;5.87;;;2.20;99.90;;;;;;4996171;28;20456;-83
2021/04/12 02:54:28;;;;;;;9.63;6.10;;;2.20;99.90;;;;;;4996025;28;20445;-88
2021/04/12 02:57:18;;;;;;;9.60;5.93;;;2.30;99.90;;;;;;4992778;28;20687;-84
2021/04/12 03:00:04;;;;;;;8.70;6.20;;;2.10;99.90;;;;;;4995986;28;20460;-88
2021/04/12 03:02:55;;;;;;;6.77;6.07;;;2.00;99.90;;;;;;4994689;28;20453;-86
2021/04/12 03:05:51;;;;;;;7.00;5.17;;;2.00;99.90;;;;;;4995858;28;20449;-86
2021/04/12 03:08:45;;;;;;;7.20;4.90;;;2.10;99.90;;;;;;4995611;28;20984;-87
2021/04/12 03:11:49;;;;;;;7.00;6.10;;;2.20;99.90;;;;;;4995192;28;20508;-85
2021/04/12 03:14:50;;;;;;;8.00;5.80;;;1.90;99.90;;;;;;4995654;28;20467;-84
2021/04/12 03:17:44;;;;;;;6.67;5.97;;;2.10;99.90;;;;;;4994357;28;20517;-85
2021/04/12 03:20:38;;;;;;;6.47;5.53;;;2.30;99.90;;;;;;4995359;28;20815;-87
2021/04/12 03:23:27;;;;;;;7.67;6.00;;;2.10;99.90;;;;;;4995313;28;20453;-84
2021/04/12 03:26:02;;;;;;;9.47;6.37;;;2.10;99.90;;;;;;4995413;28;20448;-87
2021/04/12 03:28:47;;;;;;;10.67;6.90;;;2.00;99.90;;;;;;4995219;28;20492;-87
2021/04/12 03:31:34;;;;;;;8.97;5.40;;;2.30;99.90;;;;;;4990525;28;20444;-84
2021/04/12 03:34:15;;;;;;;8.27;6.07;;;2.30;99.90;;;;;;4994067;28;20457;-85
2021/04/12 03:37:00;;;;;;;8.40;5.93;;;2.60;99.90;;;;;;4992805;28;20485;-87
2021/04/12 03:39:40;;;;;;;8.60;5.60;;;2.20;99.90;;;;;;4991948;28;20450;-87
2021/04/12 03:42:23;;;;;;;11.37;5.10;;;2.10;99.90;;;;;;4994780;28;20968;-86
2021/04/12 03:45:33;;;;;;;9.10;5.60;;;2.40;99.90;;;;;;4994931;28;20449;-85
2021/04/12 03:48:29;;;;;;;8.57;5.70;;;2.10;99.90;;;;;;4993872;28;20453;-86
2021/04/12 03:51:40;;;;;;;9.97;5.23;;;2.40;99.90;;;;;;4991925;28;20487;-84
2021/04/12 03:54:24;;;;;;;6.97;5.20;;;2.20;99.90;;;;;;4990577;28;20460;-86
2021/04/12 03:57:17;;;;;;;7.73;5.93;;;2.20;99.90;;;;;;4994802;28;20488;-88
2021/04/12 04:00:09;;;;;;;8.13;5.67;;;2.20;99.90;;;;;;4994870;28;20453;-89
2021/04/12 04:02:56;;;;;;;8.30;6.17;;;2.30;99.90;;;;;;4990732;28;20453;-88
2021/04/12 04:05:44;;;;;;;11.17;7.63;;;2.10;99.90;;;;;;4994531;28;20437;-85
2021/04/12 04:08:48;;;;;;;9.07;5.77;;;2.30;99.90;;;;;;4994494;28;20559;-86
2021/04/12 04:11:53;;;;;;;7.93;6.30;;;2.20;99.90;;;;;;4994807;28;20456;-86
2021/04/12 04:14:50;;;;;;;7.73;6.07;;;2.30;99.90;;;;;;4994544;28;20461;-87
2021/04/12 04:17:31;;;;;;;8.27;6.20;;;2.30;99.90;;;;;;4993497;28;20481;-87
2021/04/12 04:20:13;;;;;;;8.00;6.20;;;2.10;99.90;;;;;;4994706;28;20457;-87
2021/04/12 04:23:05;;;;;;;8.60;6.80;;;2.50;99.90;;;;;;4994361;28;20952;-87
2021/04/12 04:26:05;;;;;;;10.80;7.00;;;2.40;99.90;;;;;;4989745;28;21475;-84
2021/04/12 04:28:48;;;;;;;9.90;6.70;;;2.40;99.90;;;;;;4942858;28;20484;-86
2021/04/12 04:31:51;;;;;;;7.70;6.30;;;2.10;99.90;;;;;;4994184;28;20449;-87
2021/04/12 04:34:27;;;;;;;9.70;6.90;;;1.80;99.90;;;;;;4993080;28;20452;-84
2021/04/12 04:37:12;;;;;;;9.83;6.93;;;2.00;99.90;;;;;;4993914;28;20496;-85
2021/04/12 04:39:59;;;;;;;7.27;4.77;;;2.00;99.90;;;;;;4994096;28;20453;-85
2021/04/12 04:43:00;;;;;;;7.77;5.57;;;2.80;99.90;;;;;;4994375;28;20460;-85
2021/04/12 04:45:34;;;;;;;7.97;5.30;;;2.10;99.90;;;;;;4993937;28;20460;-88
2021/04/12 04:48:25;;;;;;;10.00;5.40;;;2.20;99.90;;;;;;4992847;28;20457;-85
2021/04/12 04:51:23;;;;;;;7.90;5.63;;;2.20;99.90;;;;;;4994127;28;20452;-85
2021/04/12 04:54:22;;;;;;;6.40;3.47;;;1.90;99.90;;;;;;4990271;28;20453;-85
2021/04/12 04:57:10;;;;;;;5.23;3.80;;;1.70;99.90;;;;;;4993418;28;20547;-87
2021/04/12 04:59:56;;;;;;;5.67;3.83;;;1.70;99.90;;;;;;4992957;28;20448;-88
2021/04/12 05:02:49;;;;;;;7.67;4.00;;;1.90;99.90;;;;;;4992862;28;20991;-87
2021/04/12 05:05:35;;;;;;;4.53;4.03;;;1.90;99.90;;;;;;4993675;28;20941;-84
2021/04/12 05:08:44;;;;;;;5.50;4.00;;;1.90;99.90;;;;;;4994157;28;20480;-89
2021/04/12 05:11:35;;;;;;;5.57;4.17;;;1.90;99.90;;;;;;4993707;28;20512;-85
2021/04/12 05:14:46;;;;;;;4.90;4.20;;;2.00;99.90;;;;;;4993535;28;20449;-87
2021/04/12 05:17:50;;;;;;;6.50;4.37;;;1.70;99.90;;;;;;4992007;28;20493;-84
2021/04/12 05:20:33;;;;;;;5.80;4.60;;;1.90;99.90;;;;;;4993632;28;20464;-84
2021/04/12 05:23:20;;;;;;;5.50;4.10;;;1.90;99.90;;;;;;4993774;28;20456;-85
2021/04/12 05:26:16;;;;;;;5.70;4.73;;;1.80;99.90;;;;;;4993612;28;20445;-88
2021/04/12 05:29:09;;;;;;;6.37;4.23;;;1.70;99.90;;;;;;4993715;28;20485;-84
2021/04/12 05:31:48;;;;;;;8.00;5.50;;;1.40;99.90;;;;;;4952831;28;20474;-85
2021/04/12 05:34:48;;;;;;;6.40;4.97;;;1.70;99.90;;;;;;4992186;28;20483;-87
2021/04/12 05:37:35;;;;;;;6.07;4.70;;;2.00;99.90;;;;;;4993049;28;20500;-85
2021/04/12 05:40:34;;;;;;;5.80;4.50;;;1.80;99.90;;;;;;4993397;28;20461;-85
2021/04/12 05:43:22;;;;;;;5.80;4.30;;;1.80;99.90;;;;;;4983529;28;20568;-84
2021/04/12 05:46:10;;;;;;;4.70;4.20;;;1.80;99.90;;;;;;4990691;28;20859;-88
2021/04/12 05:48:59;;;;;;;6.90;4.87;;;1.90;99.90;;;;;;4975217;28;20461;-86
2021/04/12 05:51:46;;;;;;;6.13;4.93;;;1.90;99.90;;;;;;4994058;28;20445;-88
2021/04/12 05:54:25;;;;;;;6.33;5.17;;;1.90;99.90;;;;;;4993672;28;20453;-84
2021/04/12 05:57:31;;;;;;;8.43;6.70;;;1.90;99.90;;;;;;4992973;28;20489;-84
2021/04/12 06:00:33;;;;;;;9.50;6.97;;;1.90;99.90;;;;;;4986648;28;20460;-87
2021/04/12 06:03:25;;;;;;;11.77;7.90;;;1.90;99.90;;;;;;4894317;29;20485;-87
2021/04/12 06:06:35;;;;;;;9.97;7.67;;;2.00;99.90;;;;;;4897718;29;20449;-88
2021/04/12 06:09:27;;;;;;;10.43;7.83;;;2.20;99.90;;;;;;4991000;28;20515;-85
2021/04/12 06:12:08;;;;;;;10.90;7.13;;;2.60;99.90;;;;;;4998127;28;20457;-88
2021/04/12 06:15:06;;;;;;;11.90;8.13;;;2.00;99.90;;;;;;5005868;28;20448;-86
2021/04/12 06:17:48;;;;;;;10.97;8.50;;;1.80;99.90;;;;;;5014312;28;20468;-86
2021/04/12 06:20:48;;;;;;;8.87;7.23;;;2.20;99.90;;;;;;5012548;28;20448;-89
2021/04/12 06:24:08;;;;;;;8.43;6.53;;;2.10;99.90;;;;;;5017575;28;20440;-87
2021/04/12 06:26:53;;;;;;;12.40;8.80;;;2.30;99.90;;;;;;4971448;28;20458;-88
2021/04/12 06:29:58;;;;;;;10.00;7.17;;;2.30;99.90;;;;;;4976559;28;20478;-85
2021/04/12 06:33:04;;;;;;;9.73;7.10;;;1.90;99.90;;;;;;5016327;28;20459;-88
2021/04/12 06:36:06;;;;;;;9.90;6.43;;;2.40;99.90;;;;;;5015003;28;20452;-87
2021/04/12 06:38:59;;;;;;;9.67;7.00;;;2.40;99.90;;;;;;5018441;28;20499;-88
2021/04/12 06:42:17;;;;;;;8.67;7.33;;;2.50;99.90;;;;;;5018103;28;20448;-88
2021/04/12 06:45:24;;;;;;;16.27;8.20;;;2.60;99.90;;;;;;5018249;28;20458;-88
2021/04/12 06:48:41;;;;;;;13.20;8.30;;;2.90;99.90;;;;;;5017261;28;20448;-89
2021/04/12 06:51:40;;;;;;;13.90;6.07;;;2.60;99.90;;;;;;5018430;28;20449;-89
2021/04/12 06:54:43;;;;;;;12.40;8.73;;;2.70;99.90;;;;;;5016723;28;20510;-84
2021/04/12 06:57:46;;;;;;;9.77;7.97;;;2.90;99.90;;;;;;5013014;28;20491;-88
2021/04/12 07:00:58;;;;;;;10.60;7.37;;;2.60;99.90;;;;;;5016002;28;20963;-89
2021/04/12 07:04:11;;;;;;;10.97;7.90;;;2.60;99.90;;;;;;5014514;28;20974;-83
2021/04/12 07:06:43;;;;;;;9.73;7.53;;;3.40;99.90;;;;;;5015288;28;20474;-84
2021/04/12 07:09:42;;;;;;;11.30;8.40;;;2.70;99.90;;;;;;5016094;28;20467;-87
2021/04/12 07:13:00;;;;;;;10.17;7.20;;;2.80;99.90;;;;;;5015075;28;20452;-83
2021/04/12 07:16:11;;;;;;;14.97;9.33;;;2.90;99.90;;;;;;5014643;28;20448;-82
2021/04/12 07:19:16;;;;;;;11.67;9.07;;;2.60;99.90;;;;;;5013591;28;20550;-84
2021/04/12 07:22:05;;;;;;;11.20;7.20;;;2.50;99.90;;;;;;5014551;28;20463;-85
2021/04/12 07:24:55;;;;;;;11.20;8.13;;;2.50;99.90;;;;;;5014064;28;20502;-85
2021/04/12 07:27:51;;;;;;;12.57;7.90;;;2.50;99.90;;;;;;5015283;28;20493;-85
2021/04/12 07:30:42;;;;;;;13.87;9.53;;;2.60;99.90;;;;;;5015754;28;20483;-88
2021/04/12 07:33:44;;;;;;;17.27;9.27;;;2.80;99.90;;;;;;5014406;28;20452;-89
2021/04/12 07:36:38;;;;;;;11.27;8.73;;;2.60;99.90;;;;;;5017750;28;20466;-87
2021/04/12 07:39:44;;;;;;;12.83;9.33;;;2.90;99.90;;;;;;5002592;28;20455;-87
2021/04/12 07:42:40;;;;;;;12.80;8.60;;;2.50;99.90;;;;;;5013571;28;20478;-88
2021/04/12 07:45:56;;;;;;;16.80;11.83;;;2.70;99.90;;;;;;5007776;28;20447;-89
2021/04/12 07:49:16;;;;;;;15.57;11.60;;;2.70;99.90;;;;;;4999799;28;20513;-88
2021/04/12 07:52:19;;;;;;;12.70;9.50;;;2.70;99.90;;;;;;5005185;28;20457;-87
2021/04/12 07:55:27;;;;;;;20.83;14.17;;;2.80;99.90;;;;;;4998267;28;20456;-88
2021/04/12 07:58:22;;;;;;;15.40;10.30;;;2.90;99.90;;;;;;5012336;28;21002;-87
2021/04/12 08:01:27;;;;;;;19.70;12.90;;;2.60;99.90;;;;;;5018625;28;20455;-86
2021/04/12 08:04:21;;;;;;;17.47;13.50;;;2.90;99.90;;;;;;5017195;28;20502;-87
2021/04/12 08:07:35;;;;;;;20.67;15.07;;;3.00;99.90;;;;;;5017709;28;20507;-86
2021/04/12 08:10:40;;;;;;;16.47;10.20;;;2.90;99.90;;;;;;5017980;28;20556;-85
2021/04/12 08:13:42;;;;;;;10.60;7.97;;;2.90;99.90;;;;;;4987684;28;20452;-86
2021/04/12 08:16:41;;;;;;;15.03;10.40;;;3.00;99.90;;;;;;5013024;28;20448;-86
2021/04/12 08:19:23;;;;;;;18.30;12.07;;;3.40;99.90;;;;;;5013306;28;21013;-88
2021/04/12 08:22:28;;;;;;;16.47;11.90;;;3.20;99.90;;;;;;5015488;28;20456;-89
2021/04/12 08:25:31;;;;;;;17.93;9.60;;;3.20;99.90;;;;;;5020451;28;20455;-87
2021/04/12 08:28:33;;;;;;;12.67;8.97;;;3.30;99.90;;;;;;5020527;28;20480;-88
2021/04/12 08:31:45;;;;;;;14.23;11.60;;;3.10;99.90;;;;;;5019000;28;20451;-88
2021/04/12 08:34:54;;;;;;;18.57;11.37;;;3.00;99.90;;;;;;5018439;28;20472;-88
2021/04/12 08:37:54;;;;;;;16.90;11.43;;;3.40;99.90;;;;;;5019177;28;20499;-88
2021/04/12 08:41:02;;;;;;;9.27;6.00;;;3.60;99.90;;;;;;5019518;28;20448;-85
2021/04/12 08:44:10;;;;;;;17.50;11.43;;;3.20;99.90;;;;;;5021365;28;20440;-90
2021/04/12 08:46:57;;;;;;;13.57;11.03;;;3.60;99.90;;;;;;5015428;28;20453;-85
2021/04/12 08:50:07;;;;;;;16.17;9.77;;;3.60;99.90;;;;;;5019409;28;20462;-88
2021/04/12 08:53:07;;;;;;;17.17;11.77;;;3.70;99.90;;;;;;5011099;28;20471;-86
2021/04/12 08:55:58;;;;;;;18.33;11.97;;;3.10;99.90;;;;;;5014062;28;20452;-86
2021/04/12 08:59:04;;;;;;;14.70;11.07;;;4.00;99.90;;;;;;5005480;28;20493;-88
2021/04/12 09:02:04;;;;;;;12.40;9.77;;;4.10;99.90;;;;;;4993626;28;20446;-86
2021/04/12 09:04:59;;;;;;;15.00;11.37;;;4.10;99.90;;;;;;4997614;28;20450;-88
2021/04/12 09:08:05;;;;;;;15.17;10.97;;;4.00;99.90;;;;;;4996210;28;20499;-87
2021/04/12 09:11:11;;;;;;;11.63;8.80;;;4.00;99.90;;;;;;4993721;28;20453;-88
2021/04/12 09:14:17;;;;;;;13.47;10.30;;;4.10;99.90;;;;;;4950283;28;20503;-89
2021/04/12 09:17:04;;;;;;;11.97;8.80;;;4.20;99.90;;;;;;4998349;28;20452;-89
2021/04/12 09:19:52;;;;;;;7.20;5.73;;;4.20;99.90;;;;;;5009201;28;20460;-88
2021/04/12 09:22:57;;;;;;;10.97;8.33;;;4.10;99.90;;;;;;5017090;28;20445;-87
2021/04/12 09:26:06;;;;;;;12.43;10.53;;;4.50;99.90;;;;;;5002183;28;20448;-90
2021/04/12 09:29:15;;;;;;;10.90;8.03;;;4.90;99.90;;;;;;4999411;28;20493;-86
2021/04/12 09:31:53;;;;;;;9.50;7.67;;;4.60;99.90;;;;;;4928954;28;20453;-86
2021/04/12 09:34:53;;;;;;;9.60;7.77;;;4.50;99.90;;;;;;4999104;28;20512;-89
2021/04/12 09:37:55;;;;;;;12.47;8.10;;;4.90;99.90;;;;;;5015828;28;20880;-90
2021/04/12 09:40:52;;;;;;;9.57;8.33;;;5.10;99.90;;;;;;5010423;28;20462;-90
2021/04/12 09:43:55;;;;;;;9.47;6.90;;;5.00;99.90;;;;;;5019013;28;20448;-89
2021/04/12 09:47:01;;;;;;;10.37;6.83;;;5.30;99.90;;;;;;5016321;28;20452;-90
2021/04/12 09:50:10;;;;;;;8.77;6.30;;;5.20;99.90;;;;;;5019346;28;20444;-91
2021/04/12 09:52:52;;;;;;;6.77;5.33;;;5.30;99.90;;;;;;5019778;28;20526;-88
2021/04/12 09:56:20;;;;;;;6.77;6.07;;;5.30;99.90;;;;;;5017196;28;20921;-87
2021/04/12 09:59:12;;;;;;;6.50;5.17;;;5.30;99.90;;;;;;4938291;29;20854;-88
2021/04/12 10:02:08;;;;;;;11.00;6.27;;;5.30;99.90;;;;;;5012678;28;20542;-87
2021/04/12 10:04:51;;;;;;;8.93;5.93;;;5.40;99.90;;;;;;5000634;28;20452;-86
2021/04/12 10:07:43;;;;;;;7.73;4.53;;;5.30;99.90;;;;;;5011026;28;20467;-89
2021/04/12 10:10:16;;;;;;;8.13;5.10;;;5.40;99.90;;;;;;5001060;28;20811;-87
2021/04/12 10:13:04;;;;;;;5.70;4.67;;;5.60;99.90;;;;;;5016335;28;20456;-86
2021/04/12 10:16:07;;;;;;;5.40;4.27;;;5.80;99.90;;;;;;5016438;28;20463;-86
2021/04/12 10:18:41;;;;;;;7.30;5.00;;;5.50;99.90;;;;;;5015275;28;20499;-87
2021/04/12 10:21:29;;;;;;;7.07;4.63;;;5.90;99.90;;;;;;5013365;28;20452;-87
2021/04/12 10:24:04;;;;;;;4.17;3.77;;;5.30;99.90;;;;;;5016135;28;20444;-88
2021/04/12 10:26:38;;;;;;;5.80;3.83;;;5.10;99.90;;;;;;5012653;28;20467;-87
2021/04/12 10:29:12;;;;;;;4.63;3.37;;;5.40;99.90;;;;;;5015864;28;20454;-89
2021/04/12 10:31:41;;;;;;;3.90;3.30;;;6.20;99.90;;;;;;5008643;28;20456;-87
2021/04/12 10:34:19;;;;;;;8.00;2.30;;;6.80;99.90;;;;;;5014618;28;21006;-90
2021/04/12 10:37:18;;;;;;;3.57;3.07;;;6.50;99.90;;;;;;5010663;28;20452;-87
2021/04/12 10:39:55;;;;;;;4.07;3.30;;;6.90;99.90;;;;;;5015303;28;20451;-87
2021/04/12 10:42:30;;;;;;;3.30;2.87;;;6.90;99.90;;;;;;5015294;28;20463;-88
2021/04/12 10:45:04;;;;;;;4.53;3.53;;;7.20;99.90;;;;;;5012379;28;20566;-87
2021/04/12 10:47:44;;;;;;;6.00;3.33;;;7.20;99.90;;;;;;5011118;28;21258;-87
2021/04/12 10:50:19;;;;;;;4.00;3.23;;;7.10;99.90;;;;;;5015050;28;20448;-86
2021/04/12 10:53:07;;;;;;;3.37;3.07;;;6.90;99.90;;;;;;5014510;28;20459;-87
2021/04/12 10:55:38;;;;;;;4.77;3.20;;;6.80;99.90;;;;;;5002105;28;20452;-88
2021/04/12 10:58:24;;;;;;;4.47;2.83;;;6.30;99.90;;;;;;5014843;28;20503;-88
2021/04/12 11:01:03;;;;;;;4.63;3.20;;;6.80;99.90;;;;;;5001089;28;20483;-88
2021/04/12 11:03:49;;;;;;;5.40;3.37;;;7.20;99.90;;;;;;4996001;28;20908;-84
2021/04/12 11:06:57;;;;;;;3.83;3.10;;;7.10;99.90;;;;;;4996759;28;20484;-84
2021/04/12 11:09:52;;;;;;;3.37;2.97;;;6.40;99.90;;;;;;4989446;28;20477;-88
2021/04/12 11:12:36;;;;;;;3.60;2.90;;;6.00;99.90;;;;;;5009986;28;20507;-88
2021/04/12 11:15:13;;;;;;;4.80;2.80;;;5.80;99.90;;;;;;5004024;28;20450;-90
2021/04/12 11:17:45;;;;;;;3.90;2.93;;;5.70;99.90;;;;;;4996065;28;20488;-91
2021/04/12 11:20:17;;;;;;;5.00;3.47;;;5.70;99.90;;;;;;4995728;28;20948;-92
2021/04/12 11:22:56;;;;;;;6.23;3.57;;;5.90;99.90;;;;;;4992603;28;20523;-86
2021/04/12 11:25:35;;;;;;;6.73;3.53;;;6.10;99.90;;;;;;4996506;28;20476;-86
2021/04/12 11:28:24;;;;;;;4.33;3.47;;;6.30;99.90;;;;;;4996194;28;20497;-87
2021/04/12 11:30:56;;;;;;;2.90;2.60;;;6.10;99.90;;;;;;4980342;28;20462;-85
2021/04/12 11:33:35;;;;;;;3.70;2.97;;;6.00;99.90;;;;;;4994246;28;20505;-85
2021/04/12 11:36:20;;;;;;;3.47;2.70;;;6.00;99.90;;;;;;4990412;28;20875;-84
2021/04/12 11:38:59;;;;;;;6.20;3.00;;;6.50;99.90;;;;;;4982687;28;20500;-85
2021/04/12 11:41:30;;;;;;;2.50;2.30;;;6.90;99.90;;;;;;4995250;28;20453;-85
2021/04/12 11:44:01;;;;;;;4.13;2.00;;;7.30;99.90;;;;;;4995517;28;20494;-86
2021/04/12 11:46:41;;;;;;;4.70;2.30;;;7.40;99.90;;;;;;4994933;28;20515;-84
2021/04/12 11:49:20;;;;;;;2.73;2.40;;;7.90;99.90;;;;;;4993495;28;20460;-88
2021/04/12 11:51:55;;;;;;;3.20;2.03;;;7.70;99.70;;;;;;4994699;28;20445;-89
2021/04/12 11:54:30;;;;;;;10.33;5.80;;;8.10;99.90;;;;;;4995701;28;20464;-88
2021/04/12 11:57:03;;;;;;;24.43;12.87;;;8.40;99.90;;;;;;4995353;28;20503;-88
2021/04/12 11:59:46;;;;;;;3.07;2.40;;;7.60;97.90;;;;;;4996497;28;20453;-89
2021/04/12 12:02:25;;;;;;;27.83;14.30;;;7.70;99.90;;;;;;4992400;28;20506;-86
2021/04/12 12:04:54;;;;;;;6.60;2.60;;;7.50;99.90;;;;;;4996750;28;20444;-90
2021/04/12 12:07:36;;;;;;;3.73;3.10;;;7.30;99.90;;;;;;4995373;28;20814;-88
2021/04/12 12:10:21;;;;;;;4.50;2.43;;;6.90;99.90;;;;;;4996474;28;20445;-88
2021/04/12 12:12:57;;;;;;;2.53;2.33;;;6.50;99.90;;;;;;4996076;28;20445;-88
2021/04/12 12:15:32;;;;;;;2.27;1.73;;;6.40;99.90;;;;;;4996387;28;20445;-89
2021/04/12 12:18:04;;;;;;;3.00;2.23;;;6.30;99.90;;;;;;4995236;28;20489;-86
2021/04/12 12:20:40;;;;;;;3.50;2.37;;;6.20;99.90;;;;;;4992883;28;20519;-88
2021/04/12 12:23:26;;;;;;;3.57;2.20;;;6.20;99.90;;;;;;5003735;28;20448;-87
2021/04/12 12:25:57;;;;;;;3.03;2.03;;;6.30;99.90;;;;;;5009183;28;20530;-87
2021/04/12 12:28:38;;;;;;;4.13;3.20;;;6.30;99.90;;;;;;5015017;28;20491;-87
2021/04/12 12:31:30;;;;;;;3.43;2.33;;;6.30;99.90;;;;;;4998690;28;20457;-88
2021/04/12 12:34:15;;;;;;;2.40;2.00;;;6.60;99.90;;;;;;5003295;28;20527;-88
2021/04/12 12:36:49;;;;;;;8.23;4.70;;;6.60;99.90;;;;;;5011342;28;20452;-88
2021/04/12 12:39:24;;;;;;;4.30;3.10;;;6.70;99.90;;;;;;5016232;28;20559;-87
2021/04/12 12:41:51;;;;;;;3.20;1.50;;;;;;;;;;5015639;28;20448;-88
2021/04/12 12:44:23;;;;;;;2.50;2.00;;;7.10;98.70;;;;;;5015005;28;20452;-88
2021/04/12 12:46:50;;;;;;;3.90;1.93;;;7.30;98.50;;;;;;5014885;28;20932;-87
2021/04/12 12:49:23;;;;;;;5.63;3.50;;;7.20;98.50;;;;;;5010416;28;20441;-88
2021/04/12 12:51:52;;;;;;;9.50;6.20;;;7.20;97.90;;;;;;5014773;28;20455;-88
2021/04/12 12:54:30;;;;;;;13.57;8.00;;;7.10;97.00;;;;;;5014923;28;21017;-89
2021/04/12 12:57:20;;;;;;;4.10;2.83;;;8.00;97.90;;;;;;5005196;28;20463;-87
2021/04/12 12:59:51;;;;;;;26.37;12.83;;;9.20;95.70;;;;;;5004829;28;20453;-89
2021/04/12 13:02:31;;;;;;;3.43;1.63;;;9.00;95.00;;;;;;5006675;28;20456;-88
2021/04/12 13:05:02;;;;;;;3.50;2.40;;;8.60;93.70;;;;;;5003836;28;20432;-89
2021/04/12 13:07:31;;;;;;;7.80;2.10;;;8.50;94.10;;;;;;5002985;28;20444;-90
2021/04/12 13:10:01;;;;;;;1.80;1.67;;;8.20;94.80;;;;;;5008789;28;20445;-89
2021/04/12 13:12:36;;;;;;;3.13;2.10;;;8.10;95.00;;;;;;5010647;28;20852;-89
2021/04/12 13:15:18;;;;;;;2.70;1.57;;;7.70;93.80;;;;;;5003474;28;20483;-89
2021/04/12 13:17:45;;;;;;;3.00;2.13;;;;;;;;;;5013893;28;20993;-87
2021/04/12 13:20:16;;;;;;;4.20;1.40;;;7.20;94.50;;;;;;5013779;28;20448;-89
2021/04/12 13:22:46;;;;;;;1.40;1.30;;;6.90;94.60;;;;;;5013453;28;20459;-88
2021/04/12 13:25:21;;;;;;;4.50;1.20;;;8.10;97.60;;;;;;5004556;28;20499;-87
2021/04/12 13:27:50;;;;;;;2.80;1.17;;;7.00;95.50;;;;;;5005065;28;20476;-87
2021/04/12 13:30:22;;;;;;;2.10;1.33;;;7.00;99.90;;;;;;5002225;28;21672;-89
2021/04/12 13:32:53;;;;;;;1.30;1.20;;;7.00;94.50;;;;;;5005128;28;20472;-90
2021/04/12 13:35:22;;;;;;;1.43;1.20;;;6.90;94.10;;;;;;5009898;28;20464;-88
2021/04/12 13:38:01;;;;;;;3.57;1.40;;;6.70;94.20;;;;;;5009292;28;20495;-90
2021/04/12 13:40:31;;;;;;;1.87;1.40;;;7.10;96.20;;;;;;5015034;28;20459;-88
2021/04/12 13:43:02;;;;;;;2.30;1.70;;;7.20;96.20;;;;;;5015736;28;20452;-91
2021/04/12 13:45:33;;;;;;;4.23;2.13;;;6.90;95.90;;;;;;5010478;28;20452;-86
2021/04/12 13:48:05;;;;;;;1.53;1.17;;;7.00;95.30;;;;;;5012838;28;20471;-87
2021/04/12 13:50:33;;;;;;;3.23;1.13;;;6.60;95.20;;;;;;5013777;28;21073;-87
2021/04/12 13:53:04;;;;;;;2.43;1.20;;;6.70;95.80;;;;;;4999899;28;20449;-87
2021/04/12 13:55:34;;;;;;;3.03;1.50;;;6.90;97.40;;;;;;4989168;28;20479;-87
2021/04/12 13:58:07;;;;;;;1.17;1.03;;;7.00;95.60;;;;;;4991395;28;20489;-87
2021/04/12 14:00:44;;;;;;;2.13;1.60;;;7.00;96.70;;;;;;4996019;28;20476;-88
2021/04/12 14:03:21;;;;;;;1.33;1.10;;;6.90;95.80;;;;;;4994767;28;20441;-88
2021/04/12 14:05:56;;;;;;;3.13;1.50;;;6.80;96.10;;;;;;4995245;28;21092;-87
2021/04/12 14:08:25;;;;;;;5.97;1.50;;;7.00;95.80;;;;;;4995599;28;20463;-88
2021/04/12 14:11:00;;;;;;;1.33;1.23;;;6.80;93.20;;;;;;4994897;28;20496;-87
2021/04/12 14:13:29;;;;;;;1.80;1.23;;;6.70;94.60;;;;;;4998027;28;20472;-87
2021/04/12 14:16:17;;;;;;;1.40;1.30;;;6.50;93.90;;;;;;5008265;28;20448;-87
2021/04/12 14:18:46;;;;;;;1.23;1.13;;;6.50;95.20;;;;;;5012891;28;20531;-91
2021/04/12 14:21:22;;;;;;;1.77;1.37;;;6.50;95.20;;;;;;5005155;28;20457;-88
2021/04/12 14:23:58;;;;;;;3.07;1.80;;;7.00;95.90;;;;;;5010819;28;20479;-88
2021/04/12 14:26:28;;;;;;;2.20;1.53;;;7.20;95.00;;;;;;5015101;28;20456;-86
2021/04/12 14:28:58;;;;;;;2.73;1.53;;;7.10;94.70;;;;;;5018490;28;20455;-88
2021/04/12 14:31:27;;;;;;;1.53;1.40;;;6.90;95.20;;;;;;5009931;28;20448;-87
2021/04/12 14:34:01;;;;;;;0.60;0.57;;;6.50;94.80;;;;;;4998325;28;20449;-88
2021/04/12 14:36:29;;;;;;;2.27;1.20;;;6.50;95.70;;;;;;4996257;28;20449;-87
2021/04/12 14:39:07;;;;;;;1.37;0.90;;;6.50;94.40;;;;;;4998242;28;20492;-88
2021/04/12 14:41:38;;;;;;;0.90;0.87;;;6.40;93.40;;;;;;4996242;28;20452;-88